Time;durP1;ratioP1;P1;durP2;ratioP2;P2;SDS_P1;SDS_P2;PMS_P1;PMS_P2;Temp;Humidity;BMP_temperature;BMP_pressure;BME280_temperature;BME280_humidity;BME280_pressure;Samples;Min_cycle;Max_cycle;Signal;HPM_P1;HPM_P2
2022/10/26 00:00:43;;;;;;;12.50;4.57;;;;;;;;;;20997965;28;20057;-75
2022/10/26 00:10:45;;;;;;;6.13;3.38;;;;;;;;;;21002069;28;20044;-71
2022/10/26 00:20:47;;;;;;;12.10;3.90;;;;;;;;;;20991746;28;20045;-70
2022/10/26 00:30:50;;;;;;;9.68;3.83;;;;;;;;;;21029189;28;20480;-65
2022/10/26 00:40:51;;;;;;;9.23;3.20;;;;;;;;;;21008909;28;20056;-74
2022/10/26 00:50:54;;;;;;;9.52;3.40;;;;;;;;;;20991551;28;20472;-71
2022/10/26 01:00:56;;;;;;;10.40;3.33;;;;;;;;;;21008287;28;20080;-73
2022/10/26 01:10:58;;;;;;;8.48;2.85;;;;;;;;;;21007522;28;20048;-76
2022/10/26 01:21:11;;;;;;;7.78;2.72;;;;;;;;;;21007083;28;20519;-69
2022/10/26 01:31:19;;;;;;;8.75;2.78;;;;;;;;;;21006189;28;20533;-69
2022/10/26 01:41:22;;;;;;;9.18;2.65;;;;;;;;;;21005760;28;20056;-75
2022/10/26 01:51:26;;;;;;;9.05;2.75;;;;;;;;;;21005809;28;20060;-75
2022/10/26 02:01:49;;;;;;;7.35;2.75;;;;;;;;;;21002887;28;20059;-73
2022/10/26 02:11:53;;;;;;;6.72;2.65;;;;;;;;;;21002503;28;20059;-76
2022/10/26 02:22:01;;;;;;;4.47;2.15;;;;;;;;;;21004902;28;20052;-75
2022/10/26 02:32:03;;;;;;;6.88;2.90;;;;;;;;;;21004382;28;20056;-76
2022/10/26 02:42:06;;;;;;;7.90;3.03;;;;;;;;;;21000988;28;20842;-71
2022/10/26 02:52:30;;;;;;;7.53;2.85;;;;;;;;;;20999623;28;20122;-74
2022/10/26 03:02:31;;;;;;;7.15;2.40;;;;;;;;;;20999269;28;20056;-76
2022/10/26 03:12:33;;;;;;;6.93;2.55;;;;;;;;;;20996732;28;20052;-76
2022/10/26 03:22:34;;;;;;;8.35;2.50;;;;;;;;;;20998098;28;20045;-75
2022/10/26 03:32:37;;;;;;;7.97;2.63;;;;;;;;;;20996615;28;20131;-69
2022/10/26 03:42:43;;;;;;;6.65;2.50;;;;;;;;;;20995723;28;20140;-69
2022/10/26 03:52:48;;;;;;;10.32;2.97;;;;;;;;;;20996433;28;20097;-70
2022/10/26 04:02:57;;;;;;;7.13;3.03;;;;;;;;;;20982736;28;20048;-64
2022/10/26 04:13:00;;;;;;;10.38;3.40;;;;;;;;;;20994886;28;20102;-67
2022/10/26 04:23:04;;;;;;;8.93;3.42;;;;;;;;;;21007365;28;20040;-62
2022/10/26 04:33:07;;;;;;;9.32;3.40;;;;;;;;;;21010191;28;20049;-62
2022/10/26 04:43:10;;;;;;;9.30;2.90;;;;;;;;;;21009469;28;20059;-65
2022/10/26 04:53:12;;;;;;;9.55;3.20;;;;;;;;;;21009608;28;20140;-63
2022/10/26 05:03:15;;;;;;;10.02;3.15;;;;;;;;;;21007906;28;20056;-66
2022/10/26 05:13:17;;;;;;;10.98;3.58;;;;;;;;;;21010717;28;20098;-63
2022/10/26 05:23:20;;;;;;;12.13;2.70;;;;;;;;;;21008803;28;20105;-76
2022/10/26 05:33:23;;;;;;;10.93;3.30;;;;;;;;;;21005209;28;20052;-74
2022/10/26 05:43:26;;;;;;;12.70;3.90;;;;;;;;;;21005488;28;20055;-77
2022/10/26 05:53:28;;;;;;;11.43;3.78;;;;;;;;;;21004902;28;20412;-65
2022/10/26 06:03:46;;;;;;;9.20;3.53;;;;;;;;;;21010404;28;20056;-65
2022/10/26 06:13:48;;;;;;;9.95;4.07;;;;;;;;;;21005161;28;20491;-74
2022/10/26 06:24:09;;;;;;;10.40;4.38;;;;;;;;;;21002645;28;20127;-63
2022/10/26 06:34:14;;;;;;;11.45;3.40;;;;;;;;;;21001172;28;20140;-72
2022/10/26 06:44:22;;;;;;;6.75;3.22;;;;;;;;;;20999491;28;20053;-71
2022/10/26 06:54:29;;;;;;;8.43;3.50;;;;;;;;;;20999060;28;20154;-69
2022/10/26 07:04:31;;;;;;;9.30;3.75;;;;;;;;;;20998313;28;20045;-76
2022/10/26 07:14:33;;;;;;;10.20;5.53;;;;;;;;;;20997639;28;20480;-73
2022/10/26 07:24:36;;;;;;;9.05;3.00;;;;;;;;;;20996578;28;20048;-72
2022/10/26 07:34:39;;;;;;;13.07;4.03;;;;;;;;;;20996243;28;20052;-76
2022/10/26 07:44:41;;;;;;;9.25;2.35;;;;;;;;;;20996228;28;20053;-72
2022/10/26 07:54:44;;;;;;;10.48;5.07;;;;;;;;;;20944171;28;20059;-65
2022/10/26 08:04:46;;;;;;;13.63;4.43;;;;;;;;;;20910403;28;20129;-71
2022/10/26 08:14:48;;;;;;;14.80;5.53;;;;;;;;;;20995596;28;20076;-66
2022/10/26 08:24:51;;;;;;;19.30;5.00;;;;;;;;;;20994759;28;20053;-66
2022/10/26 08:34:54;;;;;;;17.23;5.78;;;;;;;;;;20994537;28;20052;-75
2022/10/26 08:45:00;;;;;;;17.42;6.03;;;;;;;;;;21032562;28;20044;-69
2022/10/26 08:55:02;;;;;;;21.08;5.95;;;;;;;;;;21076131;28;20051;-71
2022/10/26 09:05:14;;;;;;;15.95;5.57;;;;;;;;;;21080380;28;20467;-70
2022/10/26 09:15:35;;;;;;;13.60;5.18;;;;;;;;;;21093060;28;20091;-69
2022/10/26 09:25:40;;;;;;;12.57;5.40;;;;;;;;;;21090655;28;20047;-72
2022/10/26 09:35:42;;;;;;;22.38;6.93;;;;;;;;;;21078774;28;20048;-70
2022/10/26 09:45:47;;;;;;;21.63;6.53;;;;;;;;;;21003691;28;20048;-71
2022/10/26 09:55:52;;;;;;;16.77;6.10;;;;;;;;;;20986163;28;20547;-62
2022/10/26 10:06:14;;;;;;;18.95;7.50;;;;;;;;;;21002819;28;20485;-66
2022/10/26 10:16:21;;;;;;;18.60;7.95;;;;;;;;;;21001969;28;20076;-61
2022/10/26 10:26:23;;;;;;;22.02;7.65;;;;;;;;;;21000611;28;20044;-64
2022/10/26 10:36:31;;;;;;;20.00;6.03;;;;;;;;;;21000039;28;20044;-64
2022/10/26 10:46:33;;;;;;;14.87;5.63;;;;;;;;;;20998494;28;20080;-64
2022/10/26 10:56:40;;;;;;;25.40;6.30;;;;;;;;;;20997859;28;20106;-61
2022/10/26 11:06:43;;;;;;;38.28;14.25;;;;;;;;;;20998650;28;20049;-61
2022/10/26 11:17:03;;;;;;;21.35;6.60;;;;;;;;;;21049549;28;20070;-61
2022/10/26 11:27:11;;;;;;;16.88;5.03;;;;;;;;;;21061916;28;20044;-61
2022/10/26 11:37:20;;;;;;;20.23;4.68;;;;;;;;;;21080110;28;20376;-62
2022/10/26 11:47:24;;;;;;;15.05;4.28;;;;;;;;;;21078709;28;20048;-69
2022/10/26 11:57:27;;;;;;;11.48;3.20;;;;;;;;;;21079347;28;20121;-68
2022/10/26 12:07:31;;;;;;;13.93;3.83;;;;;;;;;;21078211;28;20048;-72
2022/10/26 12:17:38;;;;;;;16.40;3.75;;;;;;;;;;21078311;28;20063;-72
2022/10/26 12:27:40;;;;;;;17.03;4.20;;;;;;;;;;21078567;28;20052;-67
2022/10/26 12:37:43;;;;;;;11.82;4.15;;;;;;;;;;21079630;28;20060;-66
2022/10/26 12:47:48;;;;;;;10.23;2.70;;;;;;;;;;21092635;28;20091;-70
2022/10/26 12:57:59;;;;;;;10.15;2.50;;;;;;;;;;21092385;28;20087;-67
2022/10/26 13:08:09;;;;;;;6.72;1.25;;;;;;;;;;21092621;28;20066;-66
2022/10/26 13:18:18;;;;;;;8.52;2.22;;;;;;;;;;21073227;28;20052;-67
2022/10/26 13:28:41;;;;;;;8.52;3.35;;;;;;;;;;21090795;28;20059;-71
2022/10/26 13:38:46;;;;;;;8.60;2.50;;;;;;;;;;21071547;28;20087;-66
2022/10/26 13:48:49;;;;;;;8.27;2.38;;;;;;;;;;21087108;28;20058;-70
2022/10/26 13:58:58;;;;;;;10.68;2.47;;;;;;;;;;21089253;28;20048;-71
2022/10/26 14:09:03;;;;;;;7.63;1.92;;;;;;;;;;21087641;28;20052;-68
2022/10/26 14:19:05;;;;;;;9.43;2.17;;;;;;;;;;21086473;28;20237;-68
2022/10/26 14:29:16;;;;;;;10.43;3.22;;;;;;;;;;21085685;28;20048;-72
2022/10/26 14:39:31;;;;;;;9.70;1.45;;;;;;;;;;21070504;28;20056;-71
2022/10/26 14:49:33;;;;;;;4.15;1.35;;;;;;;;;;20998488;28;20044;-70
2022/10/26 14:59:35;;;;;;;5.75;1.40;;;;;;;;;;21000005;28;20048;-72
2022/10/26 15:09:43;;;;;;;8.20;1.60;;;;;;;;;;20997009;28;20045;-72
2022/10/26 15:19:45;;;;;;;5.28;1.70;;;;;;;;;;20997256;28;20057;-70
2022/10/26 15:29:52;;;;;;;7.95;2.67;;;;;;;;;;20996959;28;20140;-72
2022/10/26 15:39:58;;;;;;;6.22;2.72;;;;;;;;;;20996718;28;20151;-75
2022/10/26 15:50:00;;;;;;;6.30;2.25;;;;;;;;;;20995345;28;20060;-77
2022/10/26 16:00:02;;;;;;;11.20;2.83;;;;;;;;;;20978153;28;20056;-77
2022/10/26 16:10:03;;;;;;;5.25;2.13;;;;;;;;;;20992965;28;20052;-78
2022/10/26 16:20:12;;;;;;;9.00;2.30;;;;;;;;;;21009832;28;20044;-72
2022/10/26 16:30:14;;;;;;;9.20;2.40;;;;;;;;;;21008176;28;20447;-79
2022/10/26 16:40:16;;;;;;;5.60;1.90;;;;;;;;;;20996004;28;20044;-67
2022/10/26 16:50:20;;;;;;;10.90;3.05;;;;;;;;;;20993421;28;20059;-70
2022/10/26 17:00:22;;;;;;;11.75;3.00;;;;;;;;;;21032723;28;20052;-70
2022/10/26 17:10:25;;;;;;;10.88;3.30;;;;;;;;;;21055014;28;20497;-62
2022/10/26 17:20:28;;;;;;;15.65;4.57;;;;;;;;;;20999344;28;20053;-62
2022/10/26 17:30:31;;;;;;;11.30;3.95;;;;;;;;;;21012670;28;20045;-74
2022/10/26 17:40:32;;;;;;;10.98;4.18;;;;;;;;;;21019132;28;20052;-69
2022/10/26 17:50:34;;;;;;;11.55;3.50;;;;;;;;;;20993743;28;20131;-63
2022/10/26 18:00:36;;;;;;;12.10;2.97;;;;;;;;;;21000654;28;20048;-67
2022/10/26 18:10:38;;;;;;;8.77;3.35;;;;;;;;;;20998135;28;20044;-62
2022/10/26 18:20:39;;;;;;;13.43;6.70;;;;;;;;;;20992842;28;20048;-62
2022/10/26 18:30:41;;;;;;;13.13;3.45;;;;;;;;;;21044509;28;20048;-66
2022/10/26 18:40:43;;;;;;;11.35;3.85;;;;;;;;;;21035196;28;20055;-73
2022/10/26 18:50:45;;;;;;;8.55;4.60;;;;;;;;;;21014470;28;20107;-67
2022/10/26 19:00:47;;;;;;;12.30;5.32;;;;;;;;;;20996910;28;20538;-71
2022/10/26 19:10:49;;;;;;;16.05;5.65;;;;;;;;;;20998637;28;20059;-69
2022/10/26 19:20:50;;;;;;;18.00;6.10;;;;;;;;;;20999839;28;20045;-73
2022/10/26 19:30:52;;;;;;;7.78;3.50;;;;;;;;;;20999090;28;20041;-74
2022/10/26 19:40:58;;;;;;;12.30;3.28;;;;;;;;;;20997705;28;20052;-72
2022/10/26 19:51:00;;;;;;;11.30;3.30;;;;;;;;;;20997077;28;20053;-69
2022/10/26 20:01:02;;;;;;;14.90;2.97;;;;;;;;;;20995385;28;20131;-70
2022/10/26 20:11:05;;;;;;;9.52;3.67;;;;;;;;;;20995160;28;20455;-71
2022/10/26 20:21:08;;;;;;;12.45;4.75;;;;;;;;;;20994752;28;20052;-72
2022/10/26 20:31:09;;;;;;;11.98;4.80;;;;;;;;;;20994597;28;20184;-73
2022/10/26 20:41:12;;;;;;;10.27;4.13;;;;;;;;;;20994557;28;20531;-68
2022/10/26 20:51:34;;;;;;;10.70;3.25;;;;;;;;;;20994840;28;20386;-70
2022/10/26 21:01:37;;;;;;;11.80;2.83;;;;;;;;;;20825813;28;20049;-69
2022/10/26 21:11:39;;;;;;;8.60;3.13;;;;;;;;;;20834570;28;20080;-68
2022/10/26 21:21:41;;;;;;;10.70;2.97;;;;;;;;;;20834198;28;20053;-71
2022/10/26 21:31:42;;;;;;;11.43;3.60;;;;;;;;;;20865884;28;20087;-68
2022/10/26 21:41:44;;;;;;;8.98;2.95;;;;;;;;;;20996895;28;20060;-67
2022/10/26 21:51:46;;;;;;;6.53;2.58;;;;;;;;;;21005817;28;20048;-68
2022/10/26 22:01:48;;;;;;;8.48;3.38;;;;;;;;;;21004631;28;20045;-69
2022/10/26 22:11:49;;;;;;;14.02;3.92;;;;;;;;;;21004259;28;20440;-69
2022/10/26 22:21:51;;;;;;;8.93;3.45;;;;;;;;;;21003362;28;20131;-66
2022/10/26 22:31:53;;;;;;;11.35;3.03;;;;;;;;;;20984462;28;20122;-68
2022/10/26 22:41:54;;;;;;;8.70;2.80;;;;;;;;;;20984171;28;20052;-69
2022/10/26 22:51:56;;;;;;;7.60;3.08;;;;;;;;;;21000617;28;20131;-68
2022/10/26 23:01:58;;;;;;;9.63;2.85;;;;;;;;;;21002130;28;20412;-67
2022/10/26 23:11:59;;;;;;;9.85;2.38;;;;;;;;;;21001376;28;20048;-69
2022/10/26 23:22:01;;;;;;;9.07;2.80;;;;;;;;;;20998534;28;20052;-66
2022/10/26 23:32:03;;;;;;;10.70;3.03;;;;;;;;;;20999036;28;20551;-67
2022/10/26 23:42:04;;;;;;;8.60;2.50;;;;;;;;;;20996873;28;20059;-73
2022/10/26 23:52:06;;;;;;;5.72;2.30;;;;;;;;;;20997472;28;20052;-74
